sensor_id;sensor_type;location;lat;lon;timestamp;pressure;altitude;pressure_sealevel;temperature;humidity
70781;BME280;59514;48.810;2.134;2022-08-21T00:01:11;100473.41;;;18.98;63.54
70781;BME280;59514;48.810;2.134;2022-08-21T00:03:39;100473.13;;;19.00;62.76
70781;BME280;59514;48.810;2.134;2022-08-21T00:06:04;100482.97;;;18.90;62.49
70781;BME280;59514;48.810;2.134;2022-08-21T00:08:30;100476.75;;;18.85;63.06
70781;BME280;59514;48.810;2.134;2022-08-21T00:10:55;100469.66;;;18.84;62.76
70781;BME280;59514;48.810;2.134;2022-08-21T00:13:21;100470.75;;;18.83;63.19
70781;BME280;59514;48.810;2.134;2022-08-21T00:15:47;100472.41;;;18.79;62.87
70781;BME280;59514;48.810;2.134;2022-08-21T00:18:14;100459.06;;;18.77;63.23
70781;BME280;59514;48.810;2.134;2022-08-21T00:20:42;100462.06;;;18.76;63.28
70781;BME280;59514;48.810;2.134;2022-08-21T00:23:08;100473.22;;;18.74;63.22
70781;BME280;59514;48.810;2.134;2022-08-21T00:25:34;100467.25;;;18.67;63.39
70781;BME280;59514;48.810;2.134;2022-08-21T00:27:59;100463.69;;;18.72;63.49
70781;BME280;59514;48.810;2.134;2022-08-21T00:30:26;100458.28;;;18.67;63.73
70781;BME280;59514;48.810;2.134;2022-08-21T00:32:53;100451.75;;;18.58;64.05
70781;BME280;59514;48.810;2.134;2022-08-21T00:35:23;100454.50;;;18.53;64.58
70781;BME280;59514;48.810;2.134;2022-08-21T00:37:49;100453.41;;;18.54;64.41
70781;BME280;59514;48.810;2.134;2022-08-21T00:40:22;100455.59;;;18.52;64.39
70781;BME280;59514;48.810;2.134;2022-08-21T00:42:49;100456.66;;;18.56;65.32
70781;BME280;59514;48.810;2.134;2022-08-21T00:45:15;100459.09;;;18.57;65.14
70781;BME280;59514;48.810;2.134;2022-08-21T00:47:41;100455.56;;;18.62;65.58
70781;BME280;59514;48.810;2.134;2022-08-21T00:50:08;100447.13;;;18.63;65.13
70781;BME280;59514;48.810;2.134;2022-08-21T00:52:35;100454.47;;;18.58;65.34
70781;BME280;59514;48.810;2.134;2022-08-21T00:55:03;100453.66;;;18.57;65.81
70781;BME280;59514;48.810;2.134;2022-08-21T00:57:35;100448.78;;;18.54;65.77
70781;BME280;59514;48.810;2.134;2022-08-21T01:00:05;100449.06;;;18.53;65.17
70781;BME280;59514;48.810;2.134;2022-08-21T01:02:31;100449.34;;;18.41;65.72
70781;BME280;59514;48.810;2.134;2022-08-21T01:04:56;100450.69;;;18.39;66.21
70781;BME280;59514;48.810;2.134;2022-08-21T01:07:22;100444.72;;;18.37;65.68
70781;BME280;59514;48.810;2.134;2022-08-21T01:09:48;100447.44;;;18.37;66.15
70781;BME280;59514;48.810;2.134;2022-08-21T01:12:14;100455.59;;;18.27;66.53
70781;BME280;59514;48.810;2.134;2022-08-21T01:14:41;100454.78;;;18.21;66.45
70781;BME280;59514;48.810;2.134;2022-08-21T01:17:12;100457.22;;;18.18;66.95
70781;BME280;59514;48.810;2.134;2022-08-21T01:19:39;100458.31;;;18.06;66.76
70781;BME280;59514;48.810;2.134;2022-08-21T01:22:05;100465.94;;;18.04;67.95
70781;BME280;59514;48.810;2.134;2022-08-21T01:24:31;100458.84;;;18.03;67.59
70781;BME280;59514;48.810;2.134;2022-08-21T01:26:58;100461.03;;;17.96;68.22
70781;BME280;59514;48.810;2.134;2022-08-21T01:29:49;100467.03;;;17.93;68.01
70781;BME280;59514;48.810;2.134;2022-08-21T01:32:18;100467.03;;;17.93;68.05
70781;BME280;59514;48.810;2.134;2022-08-21T01:34:46;100472.97;;;17.90;68.11
70781;BME280;59514;48.810;2.134;2022-08-21T01:37:12;100465.91;;;17.84;68.27
70781;BME280;59514;48.810;2.134;2022-08-21T01:39:38;100459.09;;;17.82;68.55
70781;BME280;59514;48.810;2.134;2022-08-21T01:42:04;100456.66;;;17.80;68.31
70781;BME280;59514;48.810;2.134;2022-08-21T01:44:30;100451.75;;;17.72;68.69
70781;BME280;59514;48.810;2.134;2022-08-21T01:46:58;100453.13;;;17.70;69.33
70781;BME280;59514;48.810;2.134;2022-08-21T01:49:24;100457.19;;;17.72;68.63
70781;BME280;59514;48.810;2.134;2022-08-21T01:51:50;100462.38;;;17.84;68.93
70781;BME280;59514;48.810;2.134;2022-08-21T01:54:15;100461.03;;;17.91;68.71
70781;BME280;59514;48.810;2.134;2022-08-21T01:56:45;100465.94;;;17.89;68.18
70781;BME280;59514;48.810;2.134;2022-08-21T01:59:12;100453.13;;;17.90;68.48
70781;BME280;59514;48.810;2.134;2022-08-21T02:01:37;100461.31;;;17.95;68.22
70781;BME280;59514;48.810;2.134;2022-08-21T02:04:05;100452.06;;;17.96;69.20
70781;BME280;59514;48.810;2.134;2022-08-21T02:06:31;100450.97;;;17.92;68.12
70781;BME280;59514;48.810;2.134;2022-08-21T02:08:56;100449.09;;;17.87;68.16
70781;BME280;59514;48.810;2.134;2022-08-21T02:11:21;100454.78;;;17.81;69.04
70781;BME280;59514;48.810;2.134;2022-08-21T02:13:47;100450.16;;;17.81;69.02
70781;BME280;59514;48.810;2.134;2022-08-21T02:16:14;100445.81;;;17.75;68.98
70781;BME280;59514;48.810;2.134;2022-08-21T02:18:39;100450.94;;;17.72;69.39
70781;BME280;59514;48.810;2.134;2022-08-21T02:21:05;100440.88;;;17.62;69.41
70781;BME280;59514;48.810;2.134;2022-08-21T02:23:31;100442.50;;;17.58;70.03
70781;BME280;59514;48.810;2.134;2022-08-21T02:25:58;100446.03;;;17.64;69.43
70781;BME280;59514;48.810;2.134;2022-08-21T02:28:25;100437.63;;;17.60;69.67
70781;BME280;59514;48.810;2.134;2022-08-21T02:30:51;100444.69;;;17.51;69.70
70781;BME280;59514;48.810;2.134;2022-08-21T02:33:17;100444.38;;;17.48;70.29
70781;BME280;59514;48.810;2.134;2022-08-21T02:35:44;100447.38;;;17.56;70.83
70781;BME280;59514;48.810;2.134;2022-08-21T02:38:13;100441.44;;;17.59;69.88
70781;BME280;59514;48.810;2.134;2022-08-21T02:40:42;100441.72;;;17.63;69.94
70781;BME280;59514;48.810;2.134;2022-08-21T02:43:08;100438.19;;;17.57;69.51
70781;BME280;59514;48.810;2.134;2022-08-21T02:45:34;100433.28;;;17.59;70.48
70781;BME280;59514;48.810;2.134;2022-08-21T02:48:06;100442.81;;;17.67;69.75
70781;BME280;59514;48.810;2.134;2022-08-21T02:50:37;100445.25;;;17.63;69.71
70781;BME280;59514;48.810;2.134;2022-08-21T02:53:05;100443.31;;;17.64;69.59
70781;BME280;59514;48.810;2.134;2022-08-21T02:55:32;100440.38;;;17.65;69.94
70781;BME280;59514;48.810;2.134;2022-08-21T02:57:58;100441.72;;;17.63;70.28
70781;BME280;59514;48.810;2.134;2022-08-21T03:00:25;100439.81;;;17.63;69.89
70781;BME280;59514;48.810;2.134;2022-08-21T03:02:51;100443.59;;;17.57;70.45
70781;BME280;59514;48.810;2.134;2022-08-21T03:05:18;100434.38;;;17.53;70.61
70781;BME280;59514;48.810;2.134;2022-08-21T03:07:44;100438.38;;;17.41;70.34
70781;BME280;59514;48.810;2.134;2022-08-21T03:10:10;100434.28;;;17.38;71.17
70781;BME280;59514;48.810;2.134;2022-08-21T03:12:36;100441.09;;;17.36;70.68
70781;BME280;59514;48.810;2.134;2022-08-21T03:15:05;100446.22;;;17.32;71.35
70781;BME280;59514;48.810;2.134;2022-08-21T03:17:31;100439.13;;;17.26;71.82
70781;BME280;59514;48.810;2.134;2022-08-21T03:19:57;100442.41;;;17.23;71.40
70781;BME280;59514;48.810;2.134;2022-08-21T03:22:22;100439.69;;;17.28;71.56
70781;BME280;59514;48.810;2.134;2022-08-21T03:24:47;100438.91;;;17.33;71.49
70781;BME280;59514;48.810;2.134;2022-08-21T03:27:13;100436.22;;;17.38;71.36
70781;BME280;59514;48.810;2.134;2022-08-21T03:29:39;100438.09;;;17.37;71.09
70781;BME280;59514;48.810;2.134;2022-08-21T03:32:05;100418.56;;;17.35;71.31
70781;BME280;59514;48.810;2.134;2022-08-21T03:34:33;100409.03;;;17.33;71.48
70781;BME280;59514;48.810;2.134;2022-08-21T03:36:58;100410.38;;;17.30;71.78
70781;BME280;59514;48.810;2.134;2022-08-21T03:39:24;100399.50;;;17.20;71.63
70781;BME280;59514;48.810;2.134;2022-08-21T03:41:49;100398.94;;;17.13;72.23
70781;BME280;59514;48.810;2.134;2022-08-21T03:44:14;100389.72;;;17.04;72.54
70781;BME280;59514;48.810;2.134;2022-08-21T03:46:40;100394.06;;;17.10;72.51
70781;BME280;59514;48.810;2.134;2022-08-21T03:49:06;100394.63;;;17.17;72.14
70781;BME280;59514;48.810;2.134;2022-08-21T03:51:31;100397.06;;;17.18;71.75
70781;BME280;59514;48.810;2.134;2022-08-21T03:53:58;100391.91;;;17.12;72.43
70781;BME280;59514;48.810;2.134;2022-08-21T03:56:24;100405.75;;;17.20;72.65
70781;BME280;59514;48.810;2.134;2022-08-21T03:58:49;100406.03;;;17.24;72.01
70781;BME280;59514;48.810;2.134;2022-08-21T04:01:15;100399.75;;;17.08;72.33
70781;BME280;59514;48.810;2.134;2022-08-21T04:03:40;100398.91;;;17.03;72.40
70781;BME280;59514;48.810;2.134;2022-08-21T04:06:06;100389.69;;;16.99;72.98
70781;BME280;59514;48.810;2.134;2022-08-21T04:08:31;100381.53;;;16.99;72.89
70781;BME280;59514;48.810;2.134;2022-08-21T04:10:57;100398.09;;;17.02;72.80
70781;BME280;59514;48.810;2.134;2022-08-21T04:13:23;100397.81;;;16.99;72.79
70781;BME280;59514;48.810;2.134;2022-08-21T04:15:49;100399.16;;;16.96;72.96
70781;BME280;59514;48.810;2.134;2022-08-21T04:18:14;100399.44;;;16.95;73.11
70781;BME280;59514;48.810;2.134;2022-08-21T04:20:41;100405.41;;;16.97;72.85
70781;BME280;59514;48.810;2.134;2022-08-21T04:23:09;100405.69;;;16.95;73.18
70781;BME280;59514;48.810;2.134;2022-08-21T04:25:34;100407.84;;;16.98;73.02
70781;BME280;59514;48.810;2.134;2022-08-21T04:28:00;100413.03;;;17.05;73.01
70781;BME280;59514;48.810;2.134;2022-08-21T04:30:26;100410.03;;;17.06;72.99
70781;BME280;59514;48.810;2.134;2022-08-21T04:32:52;100415.75;;;17.05;72.60
70781;BME280;59514;48.810;2.134;2022-08-21T04:35:20;100413.88;;;17.15;73.69
70781;BME280;59514;48.810;2.134;2022-08-21T04:37:46;100419.59;;;17.14;72.33
70781;BME280;59514;48.810;2.134;2022-08-21T04:40:15;100422.81;;;17.06;72.54
70781;BME280;59514;48.810;2.134;2022-08-21T04:42:44;100414.38;;;17.02;72.95
70781;BME280;59514;48.810;2.134;2022-08-21T04:45:16;100421.16;;;17.00;73.28
70781;BME280;59514;48.810;2.134;2022-08-21T04:47:42;100418.44;;;17.00;73.09
70781;BME280;59514;48.810;2.134;2022-08-21T04:50:08;100416.81;;;16.99;73.36
70781;BME280;59514;48.810;2.134;2022-08-21T04:52:33;100422.50;;;16.97;73.20
70781;BME280;59514;48.810;2.134;2022-08-21T04:55:00;100420.66;;;17.08;73.21
70781;BME280;59514;48.810;2.134;2022-08-21T04:57:26;100424.47;;;17.12;73.07
70781;BME280;59514;48.810;2.134;2022-08-21T04:59:51;100423.88;;;17.05;73.09
70781;BME280;59514;48.810;2.134;2022-08-21T05:02:17;100424.66;;;17.00;73.28
70781;BME280;59514;48.810;2.134;2022-08-21T05:04:47;100421.69;;;16.97;73.37
70781;BME280;59514;48.810;2.134;2022-08-21T05:07:17;100431.47;;;17.03;73.50
70781;BME280;59514;48.810;2.134;2022-08-21T05:09:44;100427.13;;;17.02;73.24
70781;BME280;59514;48.810;2.134;2022-08-21T05:12:10;100418.19;;;17.01;72.91
70781;BME280;59514;48.810;2.134;2022-08-21T05:14:36;100428.16;;;16.91;73.73
70781;BME280;59514;48.810;2.134;2022-08-21T05:17:02;100417.31;;;16.86;73.89
70781;BME280;59514;48.810;2.134;2022-08-21T05:19:27;100423.00;;;16.89;73.79
70781;BME280;59514;48.810;2.134;2022-08-21T05:21:53;100421.63;;;16.87;74.47
70781;BME280;59514;48.810;2.134;2022-08-21T05:24:26;100418.66;;;16.83;73.69
70781;BME280;59514;48.810;2.134;2022-08-21T05:26:51;100422.69;;;16.81;74.58
70781;BME280;59514;48.810;2.134;2022-08-21T05:29:17;100424.34;;;16.82;74.51
70781;BME280;59514;48.810;2.134;2022-08-21T05:31:43;100425.97;;;16.83;74.29
70781;BME280;59514;48.810;2.134;2022-08-21T05:34:09;100422.75;;;16.91;74.41
70781;BME280;59514;48.810;2.134;2022-08-21T05:36:34;100426.00;;;16.93;74.44
70781;BME280;59514;48.810;2.134;2022-08-21T05:39:00;100418.97;;;16.92;74.29
70781;BME280;59514;48.810;2.134;2022-08-21T05:41:25;100426.50;;;16.85;73.67
70781;BME280;59514;48.810;2.134;2022-08-21T05:43:50;100429.78;;;16.87;73.86
70781;BME280;59514;48.810;2.134;2022-08-21T05:46:16;100429.78;;;16.87;74.21
70781;BME280;59514;48.810;2.134;2022-08-21T05:48:41;100425.44;;;16.91;73.74
70781;BME280;59514;48.810;2.134;2022-08-21T05:51:10;100423.28;;;16.88;73.98
70781;BME280;59514;48.810;2.134;2022-08-21T05:53:37;100428.94;;;16.86;74.18
70781;BME280;59514;48.810;2.134;2022-08-21T05:56:03;100432.47;;;16.87;74.26
70781;BME280;59514;48.810;2.134;2022-08-21T05:58:29;100429.25;;;16.90;74.14
70781;BME280;59514;48.810;2.134;2022-08-21T06:00:55;100423.00;;;16.94;74.30
70781;BME280;59514;48.810;2.134;2022-08-21T06:03:24;100435.25;;;16.97;74.02
70781;BME280;59514;48.810;2.134;2022-08-21T06:05:49;100433.06;;;16.94;73.73
70781;BME280;59514;48.810;2.134;2022-08-21T06:08:16;100435.28;;;17.02;73.89
70781;BME280;59514;48.810;2.134;2022-08-21T06:10:42;100433.13;;;17.04;73.96
70781;BME280;59514;48.810;2.134;2022-08-21T06:13:08;100431.47;;;17.03;73.61
70781;BME280;59514;48.810;2.134;2022-08-21T06:15:34;100426.31;;;17.06;73.78
70781;BME280;59514;48.810;2.134;2022-08-21T06:17:59;100424.47;;;17.12;73.33
70781;BME280;59514;48.810;2.134;2022-08-21T06:20:25;100421.47;;;17.13;73.64
70781;BME280;59514;48.810;2.134;2022-08-21T06:22:50;100424.75;;;17.15;73.47
70781;BME280;59514;48.810;2.134;2022-08-21T06:25:16;100419.59;;;17.24;73.21
70781;BME280;59514;48.810;2.134;2022-08-21T06:27:44;100419.34;;;17.26;73.46
70781;BME280;59514;48.810;2.134;2022-08-21T06:30:10;100419.63;;;17.29;73.64
70781;BME280;59514;48.810;2.134;2022-08-21T06:32:36;100421.22;;;17.30;73.04
70781;BME280;59514;48.810;2.134;2022-08-21T06:35:01;100412.06;;;17.41;73.10
70781;BME280;59514;48.810;2.134;2022-08-21T06:37:27;100419.69;;;17.49;73.16
70781;BME280;59514;48.810;2.134;2022-08-21T06:39:52;100410.47;;;17.55;72.01
70781;BME280;59514;48.810;2.134;2022-08-21T06:42:17;100402.88;;;17.62;71.82
70781;BME280;59514;48.810;2.134;2022-08-21T06:44:43;100395.28;;;17.69;72.18
70781;BME280;59514;48.810;2.134;2022-08-21T06:47:09;100391.50;;;17.75;71.90
70781;BME280;59514;48.810;2.134;2022-08-21T06:49:35;100399.91;;;17.84;71.94
70781;BME280;59514;48.810;2.134;2022-08-21T06:52:00;100399.91;;;17.94;71.22
70781;BME280;59514;48.810;2.134;2022-08-21T06:54:28;100396.63;;;18.02;70.44
70781;BME280;59514;48.810;2.134;2022-08-21T06:56:55;100402.31;;;18.05;70.10
70781;BME280;59514;48.810;2.134;2022-08-21T06:59:21;100403.44;;;18.04;70.12
70781;BME280;59514;48.810;2.134;2022-08-21T07:01:46;100409.41;;;18.06;70.31
70781;BME280;59514;48.810;2.134;2022-08-21T07:04:11;100398.53;;;18.12;69.93
70781;BME280;59514;48.810;2.134;2022-08-21T07:06:37;100401.25;;;18.17;69.87
70781;BME280;59514;48.810;2.134;2022-08-21T07:09:03;100399.06;;;18.19;70.37
70781;BME280;59514;48.810;2.134;2022-08-21T07:11:31;100403.41;;;18.20;69.89
70781;BME280;59514;48.810;2.134;2022-08-21T07:13:56;100408.03;;;18.24;69.82
70781;BME280;59514;48.810;2.134;2022-08-21T07:16:22;100405.56;;;18.28;70.16
70781;BME280;59514;48.810;2.134;2022-08-21T07:18:48;100405.84;;;18.31;69.91
70781;BME280;59514;48.810;2.134;2022-08-21T07:21:15;100410.97;;;18.38;68.96
70781;BME280;59514;48.810;2.134;2022-08-21T07:23:44;100398.50;;;18.47;68.71
70781;BME280;59514;48.810;2.134;2022-08-21T07:26:11;100405.28;;;18.54;69.17
70781;BME280;59514;48.810;2.134;2022-08-21T07:28:37;100400.63;;;18.60;69.13
70781;BME280;59514;48.810;2.134;2022-08-21T07:31:03;100398.97;;;18.69;68.37
70781;BME280;59514;48.810;2.134;2022-08-21T07:33:31;100407.66;;;18.81;67.57
70781;BME280;59514;48.810;2.134;2022-08-21T07:35:57;100405.97;;;18.90;67.47
70781;BME280;59514;48.810;2.134;2022-08-21T07:38:23;100401.31;;;18.96;67.47
70781;BME280;59514;48.810;2.134;2022-08-21T07:40:50;100405.63;;;19.07;67.11
70781;BME280;59514;48.810;2.134;2022-08-21T07:43:17;100398.78;;;19.14;67.06
70781;BME280;59514;48.810;2.134;2022-08-21T07:45:44;100401.97;;;19.26;67.12
70781;BME280;59514;48.810;2.134;2022-08-21T07:48:10;100391.06;;;19.36;66.36
70781;BME280;59514;48.810;2.134;2022-08-21T07:50:35;100397.50;;;19.50;65.53
70781;BME280;59514;48.810;2.134;2022-08-21T07:53:01;100393.31;;;19.63;65.72
70781;BME280;59514;48.810;2.134;2022-08-21T07:55:26;100395.16;;;19.72;64.70
70781;BME280;59514;48.810;2.134;2022-08-21T07:57:51;100391.25;;;19.84;64.62
70781;BME280;59514;48.810;2.134;2022-08-21T08:00:19;100386.53;;;19.94;64.48
70781;BME280;59514;48.810;2.134;2022-08-21T08:02:47;100388.59;;;20.07;62.66
70781;BME280;59514;48.810;2.134;2022-08-21T08:05:15;100380.31;;;20.17;62.70
70781;BME280;59514;48.810;2.134;2022-08-21T08:07:41;100377.56;;;20.22;62.25
70781;BME280;59514;48.810;2.134;2022-08-21T08:10:08;100378.88;;;20.30;62.46
70781;BME280;59514;48.810;2.134;2022-08-21T08:12:35;100381.53;;;20.35;62.07
70781;BME280;59514;48.810;2.134;2022-08-21T08:15:01;100379.50;;;20.45;61.03
70781;BME280;59514;48.810;2.134;2022-08-21T08:17:26;100371.00;;;20.52;61.01
70781;BME280;59514;48.810;2.134;2022-08-21T08:19:52;100377.50;;;20.56;60.75
70781;BME280;59514;48.810;2.134;2022-08-21T08:22:20;100373.09;;;20.60;60.14
70781;BME280;59514;48.810;2.134;2022-08-21T08:24:47;100374.09;;;20.64;59.95
70781;BME280;59514;48.810;2.134;2022-08-21T08:27:13;100375.97;;;20.69;60.06
70781;BME280;59514;48.810;2.134;2022-08-21T08:29:39;100371.53;;;20.73;60.02
70781;BME280;59514;48.810;2.134;2022-08-21T08:32:05;100371.75;;;20.76;58.93
70781;BME280;59514;48.810;2.134;2022-08-21T08:34:32;100374.44;;;20.81;58.60
70781;BME280;59514;48.810;2.134;2022-08-21T08:36:58;100380.22;;;20.80;55.82
70781;BME280;59514;48.810;2.134;2022-08-21T08:39:24;100379.09;;;20.81;55.64
70781;BME280;59514;48.810;2.134;2022-08-21T08:41:49;100378.25;;;20.80;56.14
70781;BME280;59514;48.810;2.134;2022-08-21T08:44:19;100373.31;;;20.82;56.64
70781;BME280;59514;48.810;2.134;2022-08-21T08:46:47;100371.06;;;20.89;56.77
70781;BME280;59514;48.810;2.134;2022-08-21T08:49:20;100359.28;;;20.94;55.74
70781;BME280;59514;48.810;2.134;2022-08-21T08:52:21;100365.53;;;20.94;55.44
70781;BME280;59514;48.810;2.134;2022-08-21T08:54:52;100372.34;;;20.97;55.64
70781;BME280;59514;48.810;2.134;2022-08-21T08:57:22;100372.56;;;21.00;56.09
70781;BME280;59514;48.810;2.134;2022-08-21T08:59:52;100362.66;;;21.09;55.45
70781;BME280;59514;48.810;2.134;2022-08-21T09:02:19;100363.06;;;21.16;56.47
70781;BME280;59514;48.810;2.134;2022-08-21T09:04:47;100352.53;;;21.28;55.53
70781;BME280;59514;48.810;2.134;2022-08-21T09:07:23;100353.25;;;21.34;55.01
70781;BME280;59514;48.810;2.134;2022-08-21T09:12:54;100348.56;;;21.39;55.51
70781;BME280;59514;48.810;2.134;2022-08-21T09:15:36;100350.16;;;21.40;55.10
70781;BME280;59514;48.810;2.134;2022-08-21T09:18:34;100340.88;;;21.41;54.77
70781;BME280;59514;48.810;2.134;2022-08-21T09:21:19;100345.22;;;21.42;54.69
70781;BME280;59514;48.810;2.134;2022-08-21T09:24:00;100350.16;;;21.40;54.85
70781;BME280;59514;48.810;2.134;2022-08-21T09:26:56;100355.94;;;21.39;54.70
70781;BME280;59514;48.810;2.134;2022-08-21T09:29:17;100353.41;;;21.42;55.34
70781;BME280;59514;48.810;2.134;2022-08-21T09:31:45;100352.22;;;21.49;54.47
70781;BME280;59514;48.810;2.134;2022-08-21T09:34:11;100355.97;;;21.53;54.60
70781;BME280;59514;48.810;2.134;2022-08-21T09:36:40;100359.75;;;21.57;54.83
70781;BME280;59514;48.810;2.134;2022-08-21T09:39:07;100361.09;;;21.59;54.66
70781;BME280;59514;48.810;2.134;2022-08-21T09:41:34;100362.63;;;21.65;54.80
70781;BME280;59514;48.810;2.134;2022-08-21T09:44:01;100366.59;;;21.73;54.82
70781;BME280;59514;48.810;2.134;2022-08-21T09:46:27;100367.94;;;21.75;55.02
70781;BME280;59514;48.810;2.134;2022-08-21T09:48:55;100356.38;;;21.78;54.38
70781;BME280;59514;48.810;2.134;2022-08-21T09:51:24;100335.78;;;21.86;54.36
70781;BME280;59514;48.810;2.134;2022-08-21T09:54:12;100333.88;;;22.00;54.33
70781;BME280;59514;48.810;2.134;2022-08-21T09:56:52;100336.88;;;22.17;54.38
70781;BME280;59514;48.810;2.134;2022-08-21T09:59:37;100330.47;;;22.35;53.11
70781;BME280;59514;48.810;2.134;2022-08-21T10:02:35;100329.47;;;22.45;51.50
70781;BME280;59514;48.810;2.134;2022-08-21T10:05:03;100313.34;;;22.43;51.57
70781;BME280;59514;48.810;2.134;2022-08-21T10:07:31;100313.97;;;22.40;51.85
70781;BME280;59514;48.810;2.134;2022-08-21T10:10:08;100312.97;;;22.36;52.25
70781;BME280;59514;48.810;2.134;2022-08-21T10:12:59;100308.19;;;22.28;51.39
70781;BME280;59514;48.810;2.134;2022-08-21T10:15:45;100298.78;;;22.20;51.20
70781;BME280;59514;48.810;2.134;2022-08-21T10:18:26;100292.28;;;22.16;50.84
70781;BME280;59514;48.810;2.134;2022-08-21T10:21:10;100283.56;;;22.14;51.36
70781;BME280;59514;48.810;2.134;2022-08-21T10:29:44;100297.13;;;22.33;51.36
70781;BME280;59514;48.810;2.134;2022-08-21T10:40:18;100280.53;;;22.70;51.04
70781;BME280;59514;48.810;2.134;2022-08-21T10:42:52;100285.06;;;22.75;50.75
70781;BME280;59514;48.810;2.134;2022-08-21T10:48:54;100281.59;;;23.19;49.56
70781;BME280;59514;48.810;2.134;2022-08-21T10:51:38;100279.03;;;23.00;50.70
70781;BME280;59514;48.810;2.134;2022-08-21T10:54:45;100267.00;;;22.87;51.42
70781;BME280;59514;48.810;2.134;2022-08-21T10:57:22;100267.84;;;22.74;52.18
70781;BME280;59514;48.810;2.134;2022-08-21T10:59:57;100275.16;;;22.65;52.36
70781;BME280;59514;48.810;2.134;2022-08-21T11:05:07;100292.28;;;22.57;52.74
70781;BME280;59514;48.810;2.134;2022-08-21T11:10:33;100304.66;;;22.68;52.56
70781;BME280;59514;48.810;2.134;2022-08-21T11:13:05;100310.13;;;22.68;52.54
70781;BME280;59514;48.810;2.134;2022-08-21T11:15:43;100308.78;;;22.79;52.59
70781;BME280;59514;48.810;2.134;2022-08-21T11:18:19;100314.59;;;23.13;51.46
70781;BME280;59514;48.810;2.134;2022-08-21T11:20:54;100316.16;;;23.64;50.21
70781;BME280;59514;48.810;2.134;2022-08-21T11:23:31;100309.81;;;24.08;49.17
70781;BME280;59514;48.810;2.134;2022-08-21T11:26:02;100299.06;;;24.28;48.92
70781;BME280;59514;48.810;2.134;2022-08-21T11:28:35;100296.75;;;24.44;48.97
70781;BME280;59514;48.810;2.134;2022-08-21T11:34:02;100294.94;;;24.48;48.29
70781;BME280;59514;48.810;2.134;2022-08-21T11:36:40;100299.75;;;24.73;47.13
70781;BME280;59514;48.810;2.134;2022-08-21T11:45:32;100304.44;;;24.90;46.77
70781;BME280;59514;48.810;2.134;2022-08-21T11:50:49;100304.75;;;24.88;46.36
70781;BME280;59514;48.810;2.134;2022-08-21T11:55:58;100297.84;;;24.99;46.63
70781;BME280;59514;48.810;2.134;2022-08-21T11:58:37;100294.56;;;25.74;45.19
70781;BME280;59514;48.810;2.134;2022-08-21T12:01:29;100289.50;;;26.39;44.08
70781;BME280;59514;48.810;2.134;2022-08-21T12:03:57;100286.88;;;27.22;42.12
70781;BME280;59514;48.810;2.134;2022-08-21T12:06:36;100278.94;;;27.00;42.74
70781;BME280;59514;48.810;2.134;2022-08-21T12:09:29;100274.91;;;27.39;41.96
70781;BME280;59514;48.810;2.134;2022-08-21T12:14:47;100262.13;;;28.24;40.94
70781;BME280;59514;48.810;2.134;2022-08-21T12:17:24;100268.78;;;27.33;42.10
70781;BME280;59514;48.810;2.134;2022-08-21T12:23:33;100251.91;;;26.14;45.82
70781;BME280;59514;48.810;2.134;2022-08-21T12:29:05;100255.66;;;25.21;48.07
70781;BME280;59514;48.810;2.134;2022-08-21T12:32:43;100254.50;;;25.56;47.03
70781;BME280;59514;48.810;2.134;2022-08-21T12:40:31;100240.25;;;25.63;46.27
70781;BME280;59514;48.810;2.134;2022-08-21T12:43:04;100234.88;;;25.66;46.11
70781;BME280;59514;48.810;2.134;2022-08-21T12:45:45;100236.25;;;25.43;46.66
70781;BME280;59514;48.810;2.134;2022-08-21T12:48:29;100239.63;;;25.57;46.51
70781;BME280;59514;48.810;2.134;2022-08-21T12:54:07;100232.81;;;26.09;44.57
70781;BME280;59514;48.810;2.134;2022-08-21T12:57:05;100237.84;;;26.07;44.49
70781;BME280;59514;48.810;2.134;2022-08-21T12:59:31;100243.63;;;26.43;44.20
70781;BME280;59514;48.810;2.134;2022-08-21T13:02:00;100235.50;;;27.38;41.37
70781;BME280;59514;48.810;2.134;2022-08-21T13:04:37;100244.84;;;28.75;38.82
70781;BME280;59514;48.810;2.134;2022-08-21T13:07:11;100247.09;;;30.11;35.93
70781;BME280;59514;48.810;2.134;2022-08-21T13:10:02;100243.75;;;29.59;36.03
70781;BME280;59514;48.810;2.134;2022-08-21T13:12:29;100226.00;;;27.06;41.19
70781;BME280;59514;48.810;2.134;2022-08-21T13:14:58;100225.75;;;26.29;43.27
70781;BME280;59514;48.810;2.134;2022-08-21T13:17:26;100224.09;;;26.86;41.63
70781;BME280;59514;48.810;2.134;2022-08-21T13:20:00;100230.06;;;27.09;41.01
70781;BME280;59514;48.810;2.134;2022-08-21T13:22:31;100228.50;;;26.79;41.32
70781;BME280;59514;48.810;2.134;2022-08-21T13:24:56;100237.38;;;27.05;40.70
70781;BME280;59514;48.810;2.134;2022-08-21T13:27:28;100241.03;;;26.97;40.53
70781;BME280;59514;48.810;2.134;2022-08-21T13:30:07;100234.97;;;27.24;40.65
70781;BME280;59514;48.810;2.134;2022-08-21T13:32:43;100222.53;;;27.51;39.93
70781;BME280;59514;48.810;2.134;2022-08-21T13:37:42;100225.53;;;27.25;40.08
70781;BME280;59514;48.810;2.134;2022-08-21T13:40:17;100212.50;;;27.34;40.15
70781;BME280;59514;48.810;2.134;2022-08-21T13:42:45;100219.25;;;27.04;40.19
70781;BME280;59514;48.810;2.134;2022-08-21T13:45:18;100221.63;;;27.26;39.99
70781;BME280;59514;48.810;2.134;2022-08-21T13:47:46;100217.91;;;27.43;39.77
70781;BME280;59514;48.810;2.134;2022-08-21T13:50:13;100219.34;;;27.28;40.18
70781;BME280;59514;48.810;2.134;2022-08-21T13:53:01;100213.72;;;27.04;40.54
70781;BME280;59514;48.810;2.134;2022-08-21T13:55:36;100222.41;;;27.47;39.84
70781;BME280;59514;48.810;2.134;2022-08-21T13:58:04;100210.84;;;27.54;39.45
70781;BME280;59514;48.810;2.134;2022-08-21T14:00:32;100214.50;;;27.46;39.32
70781;BME280;59514;48.810;2.134;2022-08-21T14:03:08;100216.16;;;27.05;40.73